ADDS METAR Data INFO
IDs: Format: Raw Decoded Include TAF

Data at: 2113 UTC 22 Oct 2017

KSLH 222054Z AUTO 26007KT 10SM OVC060 17/16 A2989 RMK AO2 T01800160
KSLH 222034Z AUTO 26012G22KT 10SM -RA OVC060 20/16 A2989 RMK AO2 T01980160
KSLH 222014Z AUTO 21005KT 10SM SCT060 BKN100 OVC120 23/12 A2986 RMK AO2 T02400124
KSLH 221954Z AUTO 18007KT 10SM BKN100 BKN120 23/12 A2985 RMK AO2 T02350127
KSLH 221934Z AUTO 17008KT 150V210 10SM SCT090 SCT120 24/12 A2985 RMK AO2 T02460127
KSLH 221914Z AUTO 16007G18KT 10SM CLR 25/12 A2985 RMK AO2 T02550123
KSLH 221854Z AUTO 19012G18KT 10SM CLR 25/12 A2987 RMK AO2 T02500127
KSLH 221834Z AUTO 17012G17KT 10SM SCT100 25/12 A2987 RMK AO2 T02550126
KSLH 221814Z AUTO 19013G22KT 160V220 10SM OVC090 25/12 A2988 RMK AO2 T02540128
KSLH 221754Z AUTO 18006KT 10SM BKN090 BKN120 24/13 A2990 RMK AO2 T02440131
KSLH 221734Z AUTO 18009G14KT 10SM SCT090 SCT120 24/13 A2991 RMK AO2 T02430132
KSLH 221714Z AUTO 19009G17KT 170V230 10SM CLR 24/13 A2991 RMK AO2 T02410134
KSLH 221654Z AUTO 17006KT 10SM CLR 23/13 A2992 RMK AO2 T02350137
KSLH 221634Z AUTO 16008KT 10SM CLR 22/13 A2993 RMK AO2 T02260136
KSLH 221614Z AUTO 16010G14KT 10SM CLR 22/13 A2993 RMK AO2 T02210131
KSLH 221554Z AUTO 16006KT 10SM CLR 21/13 A2995 RMK AO2 T02150130
KSLH 221534Z AUTO 18008KT 10SM CLR 21/12 A2995 RMK AO2 T02080125
KSLH 221514Z AUTO 17007KT 10SM CLR 19/12 A2996 RMK AO2 T01960122
KSLH 221454Z AUTO 16007KT 10SM CLR 19/11 A2996 RMK AO2 T01920118
KSLH 221434Z AUTO 15010G15KT 10SM SCT110 18/11 A2996 RMK AO2 T01860115
KSLH 221414Z AUTO 17008G14KT 10SM SCT100 18/11 A2997 RMK AO2 T01810112
KSLH 221354Z AUTO 16009KT 10SM SCT110 17/11 A2997 RMK AO2 T01730111
KSLH 221334Z AUTO 17008G14KT 10SM SCT110 17/11 A2998 RMK AO2 T01700108
KSLH 221314Z AUTO 17007KT 10SM CLR 16/11 A2997 RMK AO2 T01650108
KSLH 221254Z AUTO 16005KT 10SM CLR 16/11 A2997 RMK AO2 T01610109
KSLH 221234Z AUTO 16006KT 10SM SCT120 15/10 A2996 RMK AO2 T01540106
KSLH 221214Z AUTO 16005KT 10SM BKN120 15/10 A2996 RMK AO2 T01500105
KSLH 221154Z AUTO 15005KT 10SM CLR 14/10 A2996 RMK AO2 T01460103
KSLH 221134Z AUTO 13004KT 10SM CLR 12/09 A2996 RMK AO2 T01260093
KSLH 221114Z AUTO 12003KT 10SM CLR 12/09 A2996 RMK AO2 T01270092
KSLH 221054Z AUTO 13005KT 10SM CLR 13/09 A2996 RMK AO2 T01370095
KSLH 221034Z AUTO 14005KT 10SM CLR 13/09 A2997 RMK AO2 T01400095
KSLH 221014Z AUTO 14005KT 10SM CLR 14/09 A2997 RMK AO2 T01420093
KSLH 220954Z AUTO 15004KT 10SM CLR 15/09 A2997 RMK AO2 T01500095
KSLH 220934Z AUTO 15005KT 10SM CLR 15/09 A2998 RMK AO2 T01500095
KSLH 220914Z AUTO 15004KT 10SM CLR 15/09 A2998 RMK AO2 T01540095
KSLH 220854Z AUTO 15006KT 10SM CLR 15/10 A2999 RMK AO2 T01570097
KSLH 220834Z AUTO 14005KT 10SM CLR 16/10 A3000 RMK AO2 T01620101
KSLH 220814Z AUTO 15006KT 10SM CLR 16/10 A2999 RMK AO2 T01630104
KSLH 220755Z AUTO 16005KT 10SM CLR 17/10 A3000 RMK AO2 T01700107
KSLH 220734Z AUTO 16006KT 10SM CLR 17/11 A2999 RMK AO2 T01760108
KSLH 220714Z AUTO 19007KT 10SM CLR 18/10 A2999 RMK AO2 T01810105
KSLH 220655Z AUTO 19006KT 10SM CLR 18/10 A3000 RMK AO2 T01830101
KSLH 220634Z AUTO 18006KT 10SM CLR 18/10 A3000 RMK AO2 T01860098
KSLH 220614Z AUTO 19005KT 10SM CLR 17/08 A2999 RMK AO2 T01800091
KSLH 220554Z AUTO 17005KT 10SM SCT120 17/08 A2999 RMK AO2 T01740085
KSLH 220534Z AUTO 16005KT 10SM SCT120 17/08 A3000 RMK AO2 T01730082
KSLH 220514Z AUTO 17004KT 10SM SCT120 17/07 A3000 RMK AO2 T01720078
KSLH 220454Z AUTO 17006KT 10SM SCT120 17/07 A3000 RMK AO2 T01750076
KSLH 220434Z AUTO 17007KT 10SM BKN110 17/07 A3000 RMK AO2 T01780075
KSLH 220414Z AUTO 17006KT 10SM OVC100 18/07 A3000 RMK AO2 T01820072
KSLH 220354Z AUTO 18008KT 10SM SCT100 18/07 A2999 RMK AO2 T01800070
KSLH 220334Z AUTO 18006KT 10SM CLR 17/06 A2999 RMK AO2 T01800068
KSLH 220314Z AUTO 17008KT 10SM CLR 17/06 A2999 RMK AO2 T01800065
KSLH 220254Z AUTO 18007KT 10SM CLR 17/06 A3000 RMK AO2 T01760063
KSLH 220234Z AUTO 18007KT 10SM CLR 17/06 A3000 RMK AO2 T01750064
KSLH 220214Z AUTO 18006KT 10SM CLR 17/06 A2999 RMK AO2 T01710064
KSLH 220154Z AUTO 17005KT 10SM CLR 16/06 A2999 RMK AO2 T01650066
KSLH 220134Z AUTO 18005KT 10SM CLR 16/06 A3000 RMK AO2 T01670064
KSLH 220114Z AUTO 18003KT 10SM CLR 16/06 A3001 RMK AO2 T01670062
KSLH 220054Z AUTO 18003KT 10SM CLR 16/06 A3001 RMK AO2 T01670065
KSLH 220034Z AUTO 16003KT 10SM CLR 16/06 A3001 RMK AO2 T01680069
KSLH 220014Z AUTO 16003KT 10SM CLR 16/07 A3002 RMK AO2 T01670071
KSLH 212354Z AUTO 15004KT 10SM CLR 17/07 A3001 RMK AO2 T01710072
KSLH 212334Z AUTO 15004KT 10SM CLR 17/07 A3001 RMK AO2 T01760070
KSLH 212314Z AUTO 16005KT 10SM CLR 17/06 A3001 RMK AO2 T01800069
KSLH 212254Z AUTO 16003KT 10SM CLR 18/07 A3001 RMK AO2 T01880070
KSLH 212234Z AUTO 16003KT 10SM CLR 17/10 A2999 RMK AO2 T01710098
KSLH 212214Z AUTO 00000KT 10SM CLR 17/12 A2999 RMK AO2 T01760124
KSLH 212154Z AUTO 00000KT 10SM CLR 17/12 A3000 RMK AO2 T01800128
KSLH 212134Z AUTO 00000KT 10SM CLR 18/12 A2999 RMK AO2 T01860124
KSLH 212114Z AUTO 00000KT 10SM CLR 18/12 A2999 RMK AO2 T01840125
KSLH 212054Z AUTO 00000KT 10SM CLR 18/12 A2999 RMK AO2 T01840123
KSLH 212034Z AUTO 07003KT 10SM CLR 18/12 A2999 RMK AO2 T01870120
KSLH 212013Z AUTO 03003KT 10SM CLR 20/11 A3000 RMK AO2 T02000118
KSLH 211954Z AUTO 13004KT 10SM CLR 20/08 A3001 RMK AO2 T02050091
KSLH 211934Z AUTO 00000KT 10SM SCT120 21/08 A3001 RMK AO2 T02090084
KSLH 211914Z AUTO 12004KT 10SM CLR 21/09 A3001 RMK AO2 T02090092
KSLH 211854Z AUTO 19004KT 10SM CLR 21/05 A3002 RMK AO2 T02190051
KSLH 211834Z AUTO 20006KT 10SM CLR 22/05 A3001 RMK AO2 T02200052
KSLH 211814Z AUTO 19007KT 10SM CLR 21/06 A3002 RMK AO2 T02150064
KSLH 211754Z AUTO 00000KT 10SM CLR 20/08 A3002 RMK AO2 T02060083
KSLH 211734Z AUTO 15004KT 10SM CLR 20/08 A3002 RMK AO2 T02050089
KSLH 211714Z AUTO 17005KT 10SM CLR 20/06 A3003 RMK AO2 T02050065
KSLH 211654Z AUTO 16004KT 10SM SCT120 20/07 A3003 RMK AO2 T02010079
KSLH 211634Z AUTO 19004KT 10SM SCT120 20/08 A3003 RMK AO2 T02050083
KSLH 211614Z AUTO 18005KT 10SM CLR 19/08 A3003 RMK AO2 T01960084
KSLH 211554Z AUTO 19004KT 10SM CLR 20/07 A3002 RMK AO2 T02040079
KSLH 211534Z AUTO 18005KT 10SM CLR 18/09 A3002 RMK AO2 T01910095
KSLH 211514Z AUTO 17007KT 10SM CLR 18/09 A3003 RMK AO2 T01810094
KSLH 211454Z AUTO 18007KT 10SM CLR 17/10 A3003 RMK AO2 T01700098
KSLH 211434Z AUTO 18005KT 10SM CLR 16/10 A3003 RMK AO2 T01610099
KSLH 211414Z AUTO 16004KT 10SM CLR 16/10 A3003 RMK AO2 T01590100
KSLH 211354Z AUTO 17006KT 10SM CLR 15/10 A3004 RMK AO2 T01540098
KSLH 211334Z AUTO 18004KT 10SM CLR 15/09 A3004 RMK AO2 T01500096
KSLH 211314Z AUTO 18005KT 10SM CLR 14/09 A3004 RMK AO2 T01460095
KSLH 211254Z AUTO 17003KT 10SM CLR 13/09 A3004 RMK AO2 T01390094
KSLH 211234Z AUTO 00000KT 10SM CLR 12/09 A3004 RMK AO2 T01260092
KSLH 211214Z AUTO 00000KT 10SM CLR 13/09 A3004 RMK AO2 T01310093
KSLH 211154Z AUTO 15004KT 10SM CLR 12/09 A3004 RMK AO2 T01280096
KSLH 211135Z AUTO 14005KT 10SM CLR 12/10 A3004 RMK AO2 T01300098
KSLH 211114Z AUTO 15003KT 10SM CLR 13/09 A3004 RMK AO2 T01320095
KSLH 211054Z AUTO 16004KT 10SM CLR 13/09 A3004 RMK AO2 T01410095
KSLH 211034Z AUTO 16003KT 10SM CLR 14/10 A3004 RMK AO2 T01450097
KSLH 211014Z AUTO 17004KT 10SM CLR 14/10 A3004 RMK AO2 T01470097
KSLH 210954Z AUTO 17004KT 10SM CLR 15/09 A3003 RMK AO2 T01480096
KSLH 210934Z AUTO 17005KT 10SM CLR 15/09 A3004 RMK AO2 T01560096
KSLH 210914Z AUTO 20005KT 10SM CLR 15/10 A3004 RMK AO2 T01560097